Time;durP1;ratioP1;P1;durP2;ratioP2;P2;SDS_P1;SDS_P2;PMS_P1;PMS_P2;Temp;Humidity;BMP_temperature;BMP_pressure;BME280_temperature;BME280_humidity;BME280_pressure;Samples;Min_cycle;Max_cycle;Signal;HPM_P1;HPM_P2
2022/05/16 00:01:37;;;;;;;0.00;0.00;;;;;;;;;;4197327;28;20632;-42
2022/05/16 00:03:39;;;;;;;0.13;0.10;;;;;;;;;;4197317;28;20052;-42
2022/05/16 00:05:40;;;;;;;0.00;0.00;;;;;;;;;;4197650;28;20518;-43
2022/05/16 00:07:41;;;;;;;0.75;0.20;;;;;;;;;;4197342;28;20489;-42
2022/05/16 00:09:43;;;;;;;0.17;0.00;;;;;;;;;;4197066;28;20083;-43
2022/05/16 00:11:44;;;;;;;0.10;0.10;;;;;;;;;;4197293;28;20040;-43
2022/05/16 00:13:45;;;;;;;0.13;0.00;;;;;;;;;;4196885;28;20052;-42
2022/05/16 00:15:46;;;;;;;0.10;0.10;;;;;;;;;;4197185;28;20044;-41
2022/05/16 00:17:47;;;;;;;0.10;0.10;;;;;;;;;;4197153;28;20053;-42
2022/05/16 00:19:48;;;;;;;0.90;0.10;;;;;;;;;;4197234;28;20106;-42
2022/05/16 00:21:49;;;;;;;0.00;0.00;;;;;;;;;;4197041;28;20471;-43
2022/05/16 00:23:50;;;;;;;0.08;0.00;;;;;;;;;;4196047;28;20052;-42
2022/05/16 00:25:51;;;;;;;0.57;0.10;;;;;;;;;;4180909;28;20048;-43
2022/05/16 00:27:53;;;;;;;0.00;0.00;;;;;;;;;;4180593;28;20485;-43
2022/05/16 00:29:54;;;;;;;0.08;0.08;;;;;;;;;;4211856;28;20426;-42
2022/05/16 00:31:55;;;;;;;0.00;0.00;;;;;;;;;;4180380;28;20092;-42
2022/05/16 00:33:56;;;;;;;0.10;0.10;;;;;;;;;;4180221;28;20076;-42
2022/05/16 00:35:57;;;;;;;0.00;0.00;;;;;;;;;;4180349;28;20053;-42
2022/05/16 00:37:58;;;;;;;0.00;0.00;;;;;;;;;;4180220;28;20106;-42
2022/05/16 00:39:59;;;;;;;0.10;0.00;;;;;;;;;;4180452;28;20088;-43
2022/05/16 00:42:01;;;;;;;0.00;0.00;;;;;;;;;;4180467;28;20056;-42
2022/05/16 00:44:02;;;;;;;0.20;0.10;;;;;;;;;;4179998;28;20045;-42
2022/05/16 00:46:03;;;;;;;0.35;0.08;;;;;;;;;;4180200;28;20465;-43
2022/05/16 00:48:04;;;;;;;0.00;0.00;;;;;;;;;;4180388;28;20102;-42
2022/05/16 00:50:06;;;;;;;0.00;0.00;;;;;;;;;;4180084;28;20119;-42
2022/05/16 00:52:09;;;;;;;0.22;0.10;;;;;;;;;;4180174;28;20049;-43
2022/05/16 00:54:17;;;;;;;0.00;0.00;;;;;;;;;;4211742;28;20112;-42
2022/05/16 00:56:18;;;;;;;0.10;0.05;;;;;;;;;;4180172;28;20049;-42
2022/05/16 00:58:19;;;;;;;0.45;0.05;;;;;;;;;;4179927;28;20044;-43
2022/05/16 01:00:24;;;;;;;0.03;0.03;;;;;;;;;;4179393;28;20500;-42
2022/05/16 01:04:48;;;;;;;0.00;0.00;;;;;;;;;;4179773;28;20049;-42
2022/05/16 01:06:49;;;;;;;0.00;0.00;;;;;;;;;;4180037;28;20049;-42
2022/05/16 01:08:50;;;;;;;0.10;0.10;;;;;;;;;;4179715;28;20114;-42
2022/05/16 01:10:52;;;;;;;0.00;0.00;;;;;;;;;;4179749;28;20053;-42
2022/05/16 01:12:54;;;;;;;0.05;0.05;;;;;;;;;;4179740;28;20049;-43
2022/05/16 01:14:56;;;;;;;0.60;0.10;;;;;;;;;;4179310;28;20057;-42
2022/05/16 01:16:57;;;;;;;0.45;0.10;;;;;;;;;;4179701;28;20562;-43
2022/05/16 01:18:58;;;;;;;0.10;0.00;;;;;;;;;;4179785;28;20060;-42
2022/05/16 01:21:17;;;;;;;0.08;0.08;;;;;;;;;;4179833;28;20049;-42
2022/05/16 01:23:20;;;;;;;0.20;0.10;;;;;;;;;;4179695;28;20067;-41
2022/05/16 01:25:27;;;;;;;0.47;0.10;;;;;;;;;;4179878;28;20060;-43
2022/05/16 01:27:38;;;;;;;0.10;0.10;;;;;;;;;;4180047;28;20041;-41
2022/05/16 01:29:39;;;;;;;0.10;0.10;;;;;;;;;;4179075;28;20099;-42
2022/05/16 01:31:42;;;;;;;0.00;0.00;;;;;;;;;;4179635;28;20111;-42
2022/05/16 01:33:43;;;;;;;0.10;0.10;;;;;;;;;;4178813;28;20409;-42
2022/05/16 01:35:44;;;;;;;0.43;0.00;;;;;;;;;;4179409;28;20088;-42
2022/05/16 01:40:05;;;;;;;0.08;0.00;;;;;;;;;;4178103;28;20044;-44
2022/05/16 01:42:07;;;;;;;0.10;0.03;;;;;;;;;;4179546;28;20053;-40
2022/05/16 01:44:07;;;;;;;0.10;0.10;;;;;;;;;;4179051;28;20090;-42
2022/05/16 01:46:10;;;;;;;0.05;0.05;;;;;;;;;;4179164;28;20059;-41
2022/05/16 01:48:12;;;;;;;0.47;0.03;;;;;;;;;;4179329;28;20558;-43
2022/05/16 01:50:13;;;;;;;0.13;0.10;;;;;;;;;;4179223;28;20396;-41
2022/05/16 01:52:14;;;;;;;0.20;0.10;;;;;;;;;;4178001;28;20045;-42
2022/05/16 01:54:15;;;;;;;0.20;0.10;;;;;;;;;;4177650;28;20060;-43
2022/05/16 01:56:16;;;;;;;0.10;0.10;;;;;;;;;;4179163;28;20449;-42
2022/05/16 01:58:17;;;;;;;0.13;0.10;;;;;;;;;;4179128;28;20091;-42
2022/05/16 02:00:18;;;;;;;0.08;0.08;;;;;;;;;;4178777;28;20061;-42
2022/05/16 02:02:19;;;;;;;0.10;0.00;;;;;;;;;;4179241;28;20057;-42
2022/05/16 02:04:20;;;;;;;0.00;0.00;;;;;;;;;;4179140;28;20448;-42
2022/05/16 02:06:21;;;;;;;0.10;0.00;;;;;;;;;;4177685;28;20106;-43
2022/05/16 02:08:22;;;;;;;0.17;0.10;;;;;;;;;;4179138;28;20080;-42
2022/05/16 02:10:24;;;;;;;0.17;0.10;;;;;;;;;;4178935;28;20454;-42
2022/05/16 02:12:25;;;;;;;0.05;0.05;;;;;;;;;;4179082;28;20048;-42
2022/05/16 02:14:26;;;;;;;0.13;0.13;;;;;;;;;;4178517;28;20048;-42
2022/05/16 02:16:27;;;;;;;0.20;0.10;;;;;;;;;;4178975;28;20473;-42
2022/05/16 02:18:29;;;;;;;0.00;0.00;;;;;;;;;;4177852;28;20091;-42
2022/05/16 02:20:30;;;;;;;0.08;0.00;;;;;;;;;;4178984;28;20485;-43
2022/05/16 02:24:51;;;;;;;0.32;0.13;;;;;;;;;;4179034;28;20045;-42
2022/05/16 02:26:52;;;;;;;0.20;0.20;;;;;;;;;;4179257;28;20187;-42
2022/05/16 02:28:53;;;;;;;0.20;0.10;;;;;;;;;;4178535;28;20053;-43
2022/05/16 02:30:55;;;;;;;0.10;0.10;;;;;;;;;;4179331;28;20048;-43
2022/05/16 02:32:56;;;;;;;0.30;0.10;;;;;;;;;;4178985;28;20045;-43
2022/05/16 02:34:57;;;;;;;0.00;0.00;;;;;;;;;;4178965;28;20048;-42
2022/05/16 02:36:58;;;;;;;0.65;0.13;;;;;;;;;;4178936;28;20496;-42
2022/05/16 02:38:59;;;;;;;0.10;0.08;;;;;;;;;;4178795;28;20049;-42
2022/05/16 02:41:00;;;;;;;0.00;0.00;;;;;;;;;;4178932;28;20095;-43
2022/05/16 02:43:01;;;;;;;0.00;0.00;;;;;;;;;;4178789;28;20111;-42
2022/05/16 02:45:03;;;;;;;0.00;0.00;;;;;;;;;;4178315;28;20440;-42
2022/05/16 02:47:05;;;;;;;0.10;0.10;;;;;;;;;;4179793;28;20547;-43
2022/05/16 02:49:06;;;;;;;0.00;0.00;;;;;;;;;;4181939;28;20049;-42
2022/05/16 02:51:07;;;;;;;0.10;0.10;;;;;;;;;;4182008;28;20094;-42
2022/05/16 02:53:10;;;;;;;0.45;0.10;;;;;;;;;;4181845;28;20394;-42
2022/05/16 02:55:11;;;;;;;0.13;0.10;;;;;;;;;;4181572;28;20048;-41
2022/05/16 02:57:12;;;;;;;0.35;0.00;;;;;;;;;;4181915;28;20053;-42
2022/05/16 02:59:13;;;;;;;0.10;0.10;;;;;;;;;;4179916;28;20136;-43
2022/05/16 03:01:14;;;;;;;0.00;0.00;;;;;;;;;;4181714;28;20056;-43
2022/05/16 03:03:15;;;;;;;0.10;0.08;;;;;;;;;;4180471;28;20040;-42
2022/05/16 03:05:16;;;;;;;0.20;0.10;;;;;;;;;;4181766;28;20045;-42
2022/05/16 03:07:18;;;;;;;0.57;0.20;;;;;;;;;;4181962;28;20444;-41
2022/05/16 03:09:19;;;;;;;0.57;0.10;;;;;;;;;;4180354;28;20408;-43
2022/05/16 03:11:22;;;;;;;0.03;0.03;;;;;;;;;;4180400;28;20091;-42
2022/05/16 03:13:24;;;;;;;0.00;0.00;;;;;;;;;;4181368;28;20460;-42
2022/05/16 03:15:25;;;;;;;0.03;0.03;;;;;;;;;;4181048;28;20052;-43
2022/05/16 03:17:26;;;;;;;0.00;0.00;;;;;;;;;;4181364;28;20507;-42
2022/05/16 03:19:27;;;;;;;0.10;0.10;;;;;;;;;;4181321;28;20488;-43
2022/05/16 03:21:29;;;;;;;0.10;0.10;;;;;;;;;;4181585;28;20096;-39
2022/05/16 03:23:30;;;;;;;0.20;0.10;;;;;;;;;;4181282;28;20527;-43
2022/05/16 03:25:31;;;;;;;0.10;0.10;;;;;;;;;;4181384;28;20289;-42
2022/05/16 03:27:32;;;;;;;0.05;0.05;;;;;;;;;;4181387;28;20044;-42
2022/05/16 03:29:33;;;;;;;0.10;0.00;;;;;;;;;;4180845;28;20045;-43
2022/05/16 03:31:34;;;;;;;0.10;0.10;;;;;;;;;;4181155;28;20078;-40
2022/05/16 03:33:35;;;;;;;0.10;0.10;;;;;;;;;;4181128;28;20057;-41
2022/05/16 03:35:36;;;;;;;0.15;0.10;;;;;;;;;;4181387;28;20122;-42
2022/05/16 03:37:37;;;;;;;0.00;0.00;;;;;;;;;;4181039;28;20053;-42
2022/05/16 03:41:57;;;;;;;0.10;0.03;;;;;;;;;;4181195;28;20045;-42
2022/05/16 03:43:58;;;;;;;0.00;0.00;;;;;;;;;;4179193;28;20516;-41
2022/05/16 03:45:59;;;;;;;0.10;0.10;;;;;;;;;;4181137;28;20064;-43
2022/05/16 03:48:00;;;;;;;0.10;0.00;;;;;;;;;;4181140;28;20049;-43
2022/05/16 03:50:02;;;;;;;0.43;0.00;;;;;;;;;;4180869;28;20499;-42
2022/05/16 03:52:02;;;;;;;0.00;0.00;;;;;;;;;;4181048;28;20048;-42
2022/05/16 03:54:04;;;;;;;0.00;0.00;;;;;;;;;;4180707;28;20056;-41
2022/05/16 03:56:05;;;;;;;0.08;0.00;;;;;;;;;;4180882;28;20044;-42
2022/05/16 03:58:06;;;;;;;0.13;0.10;;;;;;;;;;4180568;28;20095;-43
2022/05/16 04:00:12;;;;;;;0.00;0.00;;;;;;;;;;4180617;28;20107;-43
2022/05/16 04:02:13;;;;;;;0.00;0.00;;;;;;;;;;4180566;28;20053;-43
2022/05/16 04:04:14;;;;;;;0.10;0.10;;;;;;;;;;4180520;28;20091;-41
2022/05/16 04:06:15;;;;;;;0.00;0.00;;;;;;;;;;4180768;28;20125;-42
2022/05/16 04:08:16;;;;;;;0.00;0.00;;;;;;;;;;4181020;28;20445;-42
2022/05/16 04:10:17;;;;;;;0.35;0.17;;;;;;;;;;4180498;28;20049;-42
2022/05/16 04:12:18;;;;;;;0.17;0.10;;;;;;;;;;4179458;28;20102;-43
2022/05/16 04:14:19;;;;;;;0.00;0.00;;;;;;;;;;4180489;28;20057;-42
2022/05/16 04:16:20;;;;;;;0.00;0.00;;;;;;;;;;4180805;28;20103;-43
2022/05/16 04:18:21;;;;;;;0.10;0.10;;;;;;;;;;4180822;28;20114;-42
2022/05/16 04:20:23;;;;;;;0.22;0.20;;;;;;;;;;4180333;28;20053;-43
2022/05/16 04:22:24;;;;;;;0.00;0.00;;;;;;;;;;4180493;28;20053;-42
2022/05/16 04:24:25;;;;;;;0.22;0.00;;;;;;;;;;4180332;28;20048;-42
2022/05/16 04:26:26;;;;;;;0.05;0.03;;;;;;;;;;4180574;28;20049;-42
2022/05/16 04:28:26;;;;;;;0.10;0.10;;;;;;;;;;4180627;28;20118;-42
2022/05/16 04:30:27;;;;;;;0.17;0.10;;;;;;;;;;4178846;28;20573;-43
2022/05/16 04:32:28;;;;;;;0.10;0.10;;;;;;;;;;4180555;28;20044;-43
2022/05/16 04:34:29;;;;;;;0.10;0.00;;;;;;;;;;4180438;28;20045;-42
2022/05/16 04:36:30;;;;;;;0.10;0.03;;;;;;;;;;4180340;28;20060;-42
2022/05/16 04:38:31;;;;;;;0.10;0.10;;;;;;;;;;4180245;28;20185;-43
2022/05/16 04:40:33;;;;;;;0.25;0.10;;;;;;;;;;4179887;28;20439;-43
2022/05/16 04:42:40;;;;;;;0.45;0.22;;;;;;;;;;4194535;28;20079;-42
2022/05/16 04:44:41;;;;;;;0.68;0.15;;;;;;;;;;4180941;28;20036;-43
2022/05/16 04:46:42;;;;;;;0.25;0.25;;;;;;;;;;4180328;28;20056;-41
2022/05/16 04:48:43;;;;;;;0.17;0.10;;;;;;;;;;4178619;28;20131;-43
2022/05/16 04:50:44;;;;;;;0.20;0.20;;;;;;;;;;4179950;28;20052;-42
2022/05/16 04:52:46;;;;;;;0.68;0.20;;;;;;;;;;4179950;28;20048;-42
2022/05/16 04:54:48;;;;;;;0.63;0.20;;;;;;;;;;4180046;28;20045;-43
2022/05/16 04:56:51;;;;;;;0.15;0.10;;;;;;;;;;4176638;28;20621;-42
2022/05/16 04:58:52;;;;;;;0.10;0.10;;;;;;;;;;4184383;28;20059;-42
2022/05/16 05:00:53;;;;;;;0.20;0.20;;;;;;;;;;4178821;28;20095;-41
2022/05/16 05:02:54;;;;;;;0.20;0.20;;;;;;;;;;4186201;28;20554;-41
2022/05/16 05:04:55;;;;;;;2.13;0.30;;;;;;;;;;4182547;28;20487;-42
2022/05/16 05:06:57;;;;;;;0.28;0.20;;;;;;;;;;4180559;28;20077;-41
2022/05/16 05:08:57;;;;;;;0.50;0.25;;;;;;;;;;4186395;28;20048;-42
2022/05/16 05:15:38;;;;;;;0.15;0.15;;;;;;;;;;4176022;28;20335;-42
2022/05/16 05:17:41;;;;;;;1.05;0.40;;;;;;;;;;4179350;28;20929;-43
2022/05/16 05:19:42;;;;;;;0.40;0.30;;;;;;;;;;4182699;28;20098;-42
2022/05/16 05:21:43;;;;;;;0.38;0.22;;;;;;;;;;4176952;28;20041;-43
2022/05/16 05:23:44;;;;;;;0.75;0.40;;;;;;;;;;4171654;28;20048;-43
2022/05/16 05:25:45;;;;;;;0.30;0.20;;;;;;;;;;4178463;28;20044;-43
2022/05/16 05:27:48;;;;;;;0.50;0.20;;;;;;;;;;4176790;28;20052;-36
2022/05/16 05:29:51;;;;;;;0.85;0.55;;;;;;;;;;4174919;28;20075;-39
2022/05/16 05:31:52;;;;;;;0.30;0.22;;;;;;;;;;4172470;28;20044;-41
2022/05/16 05:33:54;;;;;;;0.15;0.13;;;;;;;;;;4171054;28;20666;-37
2022/05/16 05:35:55;;;;;;;0.52;0.30;;;;;;;;;;4176646;28;20053;-38
2022/05/16 05:37:56;;;;;;;0.35;0.30;;;;;;;;;;4173016;28;20453;-42
2022/05/16 05:40:01;;;;;;;0.55;0.30;;;;;;;;;;4168852;28;20060;-43
2022/05/16 05:42:02;;;;;;;0.47;0.20;;;;;;;;;;4179371;28;20304;-42
2022/05/16 05:44:03;;;;;;;1.20;0.30;;;;;;;;;;4176126;28;20070;-43
2022/05/16 05:46:04;;;;;;;0.38;0.38;;;;;;;;;;4171178;28;20106;-40
2022/05/16 05:48:05;;;;;;;0.68;0.38;;;;;;;;;;4177785;28;20222;-43
2022/05/16 05:50:07;;;;;;;0.77;0.40;;;;;;;;;;4174841;28;20101;-40
2022/05/16 05:52:08;;;;;;;1.33;0.47;;;;;;;;;;4178889;28;20056;-42
2022/05/16 05:54:09;;;;;;;0.47;0.20;;;;;;;;;;4180669;28;20040;-41
2022/05/16 05:56:12;;;;;;;0.65;0.30;;;;;;;;;;4175207;28;20296;-41
2022/05/16 05:58:13;;;;;;;0.75;0.20;;;;;;;;;;4160865;28;20052;-43
2022/05/16 06:00:15;;;;;;;3.08;0.40;;;;;;;;;;4164372;28;20053;-42
2022/05/16 06:02:16;;;;;;;0.90;0.40;;;;;;;;;;4170934;28;20063;-42
2022/05/16 06:04:17;;;;;;;1.73;0.45;;;;;;;;;;4163687;28;20052;-42
2022/05/16 06:06:18;;;;;;;0.73;0.68;;;;;;;;;;4165871;28;20102;-43
2022/05/16 06:08:19;;;;;;;0.43;0.32;;;;;;;;;;4153430;28;20048;-42
2022/05/16 06:10:20;;;;;;;1.25;0.28;;;;;;;;;;4162913;28;20554;-39
2022/05/16 06:12:21;;;;;;;0.73;0.40;;;;;;;;;;4153852;28;20056;-40
2022/05/16 06:14:22;;;;;;;2.55;0.50;;;;;;;;;;4158102;28;20055;-38
2022/05/16 06:16:23;;;;;;;1.85;0.10;;;;;;;;;;4185408;28;21122;-43
2022/05/16 06:18:24;;;;;;;2.10;0.57;;;;;;;;;;4155763;28;20052;-43
2022/05/16 06:20:25;;;;;;;0.70;0.30;;;;;;;;;;4161337;28;20057;-42
2022/05/16 06:22:26;;;;;;;3.25;0.35;;;;;;;;;;4159391;28;20056;-42
2022/05/16 06:26:48;;;;;;;0.47;0.28;;;;;;;;;;4151154;28;20594;-44
2022/05/16 06:28:49;;;;;;;1.13;0.20;;;;;;;;;;4152317;28;20078;-41
2022/05/16 06:30:51;;;;;;;1.20;0.50;;;;;;;;;;4166270;28;20048;-43
2022/05/16 06:32:53;;;;;;;0.68;0.32;;;;;;;;;;4148029;28;20517;-43
2022/05/16 06:34:55;;;;;;;0.90;0.30;;;;;;;;;;4153275;28;20240;-43
2022/05/16 06:36:56;;;;;;;1.35;0.75;;;;;;;;;;4150768;28;20374;-44
2022/05/16 06:38:57;;;;;;;0.63;0.35;;;;;;;;;;4153172;28;20053;-41
2022/05/16 06:40:59;;;;;;;0.85;0.30;;;;;;;;;;4155686;28;20096;-44
2022/05/16 06:43:00;;;;;;;1.38;0.30;;;;;;;;;;4152012;28;20049;-42
2022/05/16 06:45:01;;;;;;;1.30;0.30;;;;;;;;;;4189206;28;20044;-44
2022/05/16 06:47:02;;;;;;;3.83;0.40;;;;;;;;;;4142997;28;20114;-46
2022/05/16 06:49:03;;;;;;;3.25;0.20;;;;;;;;;;4147889;28;20048;-43
2022/05/16 06:51:04;;;;;;;2.65;0.40;;;;;;;;;;4141952;28;20749;-43
2022/05/16 06:53:06;;;;;;;0.50;0.15;;;;;;;;;;4132458;28;20123;-43
2022/05/16 06:55:08;;;;;;;2.33;0.40;;;;;;;;;;4148463;28;20761;-44
2022/05/16 06:57:09;;;;;;;2.28;0.63;;;;;;;;;;4147830;28;20110;-43
2022/05/16 06:59:10;;;;;;;3.08;0.73;;;;;;;;;;4146787;28;20049;-43
2022/05/16 07:01:11;;;;;;;1.52;0.40;;;;;;;;;;4146286;28;20057;-43
2022/05/16 07:03:12;;;;;;;2.70;0.30;;;;;;;;;;4149422;28;20508;-43
2022/05/16 07:05:14;;;;;;;2.75;0.47;;;;;;;;;;4133133;28;20222;-44
2022/05/16 07:07:15;;;;;;;1.63;0.40;;;;;;;;;;4124266;28;20056;-42
2022/05/16 07:09:15;;;;;;;1.13;0.40;;;;;;;;;;4144707;28;20044;-44
2022/05/16 07:11:17;;;;;;;4.20;0.90;;;;;;;;;;4145316;28;20565;-44
2022/05/16 07:13:18;;;;;;;2.88;0.60;;;;;;;;;;4131114;28;20063;-44
2022/05/16 07:15:20;;;;;;;1.65;0.30;;;;;;;;;;4131451;28;20807;-43
2022/05/16 07:17:21;;;;;;;1.55;0.30;;;;;;;;;;4140668;28;21041;-42
2022/05/16 07:19:22;;;;;;;3.60;0.85;;;;;;;;;;4139045;28;20059;-44
2022/05/16 07:21:23;;;;;;;4.00;0.57;;;;;;;;;;4141033;28;22069;-43
2022/05/16 07:23:25;;;;;;;2.50;0.30;;;;;;;;;;4150029;28;20156;-42
2022/05/16 07:25:27;;;;;;;2.78;0.50;;;;;;;;;;4152049;28;20056;-43
2022/05/16 07:29:48;;;;;;;2.83;0.63;;;;;;;;;;4144420;28;20106;-45
2022/05/16 07:31:51;;;;;;;4.72;0.45;;;;;;;;;;4134508;28;20056;-43
2022/05/16 07:33:52;;;;;;;4.43;0.30;;;;;;;;;;4148683;28;20052;-43
2022/05/16 07:35:55;;;;;;;1.05;0.40;;;;;;;;;;4142044;28;20335;-43
2022/05/16 07:37:57;;;;;;;1.27;0.50;;;;;;;;;;4143717;28;20060;-44
2022/05/16 07:39:58;;;;;;;6.07;0.40;;;;;;;;;;4170138;28;20056;-43
2022/05/16 07:41:59;;;;;;;3.63;0.30;;;;;;;;;;4142609;28;20398;-43
2022/05/16 07:44:00;;;;;;;1.98;0.43;;;;;;;;;;4143171;28;20829;-44
2022/05/16 07:46:03;;;;;;;1.33;0.35;;;;;;;;;;4139744;28;20674;-44
2022/05/16 07:48:04;;;;;;;1.50;0.30;;;;;;;;;;4149246;28;20053;-44
2022/05/16 07:50:07;;;;;;;1.75;0.38;;;;;;;;;;4147542;28;20079;-44
2022/05/16 07:52:09;;;;;;;0.80;0.28;;;;;;;;;;4148080;28;20095;-44
2022/05/16 07:54:10;;;;;;;1.33;0.28;;;;;;;;;;4150407;28;20705;-44
2022/05/16 07:56:11;;;;;;;2.17;0.30;;;;;;;;;;4155024;28;20064;-43
2022/05/16 07:58:12;;;;;;;1.10;0.32;;;;;;;;;;4172280;28;20055;-43
2022/05/16 08:00:14;;;;;;;1.00;0.30;;;;;;;;;;4126034;28;20287;-44
2022/05/16 08:02:16;;;;;;;1.05;0.32;;;;;;;;;;4114684;28;20092;-44
2022/05/16 08:04:17;;;;;;;2.00;0.77;;;;;;;;;;4122937;28;20048;-44
2022/05/16 08:06:18;;;;;;;1.67;0.40;;;;;;;;;;4134737;28;20134;-42
2022/05/16 08:10:39;;;;;;;5.18;0.50;;;;;;;;;;4135142;28;20098;-44
2022/05/16 08:12:41;;;;;;;2.63;0.40;;;;;;;;;;4142723;28;20056;-45
2022/05/16 08:14:43;;;;;;;2.28;0.50;;;;;;;;;;4147557;28;20058;-43
2022/05/16 08:16:45;;;;;;;1.02;0.30;;;;;;;;;;4150699;28;20067;-41
2022/05/16 08:18:45;;;;;;;1.48;0.30;;;;;;;;;;4146953;28;20835;-41
2022/05/16 08:20:47;;;;;;;6.85;0.40;;;;;;;;;;4147333;28;22133;-42
2022/05/16 08:22:48;;;;;;;1.58;0.22;;;;;;;;;;4148356;28;23632;-40
2022/05/16 08:24:49;;;;;;;1.27;0.40;;;;;;;;;;4151511;28;20052;-42
2022/05/16 08:26:50;;;;;;;1.40;0.30;;;;;;;;;;4179266;28;20716;-41
2022/05/16 08:28:51;;;;;;;2.40;0.32;;;;;;;;;;4147940;28;20049;-40
2022/05/16 08:30:52;;;;;;;0.65;0.20;;;;;;;;;;4142669;28;20079;-42
2022/05/16 08:32:55;;;;;;;1.50;0.22;;;;;;;;;;4146982;28;20045;-42
2022/05/16 08:35:00;;;;;;;1.08;0.30;;;;;;;;;;4152052;28;20094;-41
2022/05/16 08:41:50;;;;;;;0.43;0.20;;;;;;;;;;4151438;28;20367;-42
2022/05/16 08:43:53;;;;;;;3.75;0.40;;;;;;;;;;4145520;28;20111;-42
2022/05/16 08:46:02;;;;;;;0.43;0.20;;;;;;;;;;4140093;28;20131;-39
2022/05/16 08:48:11;;;;;;;0.60;0.10;;;;;;;;;;4153722;28;20408;-42
2022/05/16 08:50:14;;;;;;;1.52;0.38;;;;;;;;;;4149595;28;20500;-41
2022/05/16 08:52:16;;;;;;;0.80;0.22;;;;;;;;;;4149626;28;20048;-37
2022/05/16 08:54:17;;;;;;;2.35;0.40;;;;;;;;;;4136531;28;20544;-43
2022/05/16 08:56:23;;;;;;;1.27;0.40;;;;;;;;;;4143243;28;20096;-42
2022/05/16 08:58:33;;;;;;;1.45;0.30;;;;;;;;;;4146318;28;20862;-42
2022/05/16 09:00:49;;;;;;;0.90;0.38;;;;;;;;;;4134051;28;20508;-42
2022/05/16 09:02:52;;;;;;;1.27;0.30;;;;;;;;;;4130700;28;20048;-41
2022/05/16 09:04:58;;;;;;;0.55;0.20;;;;;;;;;;4121057;28;20052;-43
2022/05/16 09:07:20;;;;;;;3.75;0.20;;;;;;;;;;4141232;28;20083;-42
2022/05/16 09:09:25;;;;;;;0.38;0.20;;;;;;;;;;4151466;28;20388;-42
2022/05/16 09:11:35;;;;;;;0.55;0.25;;;;;;;;;;4140400;28;20491;-42
2022/05/16 09:13:55;;;;;;;2.42;0.20;;;;;;;;;;4143450;28;20057;-42
2022/05/16 09:15:56;;;;;;;3.70;0.30;;;;;;;;;;4139807;28;20060;-43
2022/05/16 09:18:09;;;;;;;1.52;0.45;;;;;;;;;;4151071;28;21398;-41
2022/05/16 09:20:31;;;;;;;0.50;0.20;;;;;;;;;;4136534;28;20049;-44
2022/05/16 09:22:35;;;;;;;2.05;0.52;;;;;;;;;;4148409;28;20781;-44
2022/05/16 09:25:02;;;;;;;3.75;0.38;;;;;;;;;;4135642;28;20056;-44
2022/05/16 09:29:45;;;;;;;1.00;0.25;;;;;;;;;;4142922;28;20554;-43
2022/05/16 09:31:48;;;;;;;0.28;0.17;;;;;;;;;;4139298;28;20492;-42
2022/05/16 09:33:58;;;;;;;1.33;0.20;;;;;;;;;;4143025;28;20056;-43
2022/05/16 09:35:59;;;;;;;0.82;0.20;;;;;;;;;;4140252;28;20574;-43
2022/05/16 09:38:00;;;;;;;2.92;0.20;;;;;;;;;;4132495;28;20049;-43
2022/05/16 09:40:01;;;;;;;1.13;0.20;;;;;;;;;;4142248;28;20071;-42
2022/05/16 09:42:19;;;;;;;3.40;0.60;;;;;;;;;;4141488;28;20098;-44
2022/05/16 09:44:25;;;;;;;2.08;0.20;;;;;;;;;;4143345;28;20424;-44
2022/05/16 09:46:41;;;;;;;0.60;0.40;;;;;;;;;;4134608;28;20048;-42
2022/05/16 09:48:41;;;;;;;4.68;0.40;;;;;;;;;;4148823;28;21028;-44
2022/05/16 09:50:54;;;;;;;0.20;0.20;;;;;;;;;;4145943;28;20045;-43
2022/05/16 09:53:01;;;;;;;0.95;0.28;;;;;;;;;;4140960;28;20083;-44
2022/05/16 09:55:07;;;;;;;0.40;0.10;;;;;;;;;;4136772;28;20681;-43
2022/05/16 09:57:16;;;;;;;0.40;0.10;;;;;;;;;;4143131;28;21005;-44
2022/05/16 09:59:31;;;;;;;0.80;0.38;;;;;;;;;;4139017;28;20544;-43
2022/05/16 10:01:34;;;;;;;0.60;0.20;;;;;;;;;;4140742;28;20534;-42
2022/05/16 10:03:43;;;;;;;0.55;0.20;;;;;;;;;;4143699;28;20052;-42
2022/05/16 10:05:47;;;;;;;1.05;0.15;;;;;;;;;;4140961;28;20051;-42
2022/05/16 10:07:50;;;;;;;2.30;0.30;;;;;;;;;;4138468;28;20045;-42
2022/05/16 10:09:52;;;;;;;1.77;0.20;;;;;;;;;;4150695;28;20556;-43
2022/05/16 10:11:53;;;;;;;1.60;0.10;;;;;;;;;;4148390;28;20049;-44
2022/05/16 10:13:55;;;;;;;1.83;0.20;;;;;;;;;;4146763;28;20079;-43
2022/05/16 10:15:57;;;;;;;0.45;0.22;;;;;;;;;;4130665;28;20052;-40
2022/05/16 10:17:59;;;;;;;1.20;0.20;;;;;;;;;;4142804;28;20623;-41
2022/05/16 10:20:05;;;;;;;3.08;0.30;;;;;;;;;;4147316;28;20425;-40
2022/05/16 10:22:10;;;;;;;1.55;0.10;;;;;;;;;;4155474;28;20048;-40
2022/05/16 10:24:11;;;;;;;1.25;0.35;;;;;;;;;;4149105;28;20343;-42
2022/05/16 10:26:15;;;;;;;1.38;0.20;;;;;;;;;;4153008;28;20301;-40
2022/05/16 10:28:21;;;;;;;3.65;0.43;;;;;;;;;;4151269;28;20044;-42
2022/05/16 10:30:24;;;;;;;0.90;0.15;;;;;;;;;;4155014;28;20075;-39
2022/05/16 10:35:04;;;;;;;1.88;0.25;;;;;;;;;;4144910;28;21632;-37
2022/05/16 10:37:06;;;;;;;1.55;0.20;;;;;;;;;;4154908;28;20094;-41
2022/05/16 10:39:13;;;;;;;1.58;0.20;;;;;;;;;;4139327;28;20561;-41
2022/05/16 10:41:19;;;;;;;1.73;0.28;;;;;;;;;;4148861;28;20052;-41
2022/05/16 10:43:29;;;;;;;0.65;0.20;;;;;;;;;;4155107;28;20171;-41
2022/05/16 10:45:31;;;;;;;0.13;0.13;;;;;;;;;;4149033;28;20103;-42
2022/05/16 10:47:53;;;;;;;1.77;0.20;;;;;;;;;;4159695;28;20049;-42
2022/05/16 10:50:06;;;;;;;0.20;0.20;;;;;;;;;;4151822;28;20057;-42
2022/05/16 10:52:07;;;;;;;0.98;0.20;;;;;;;;;;4145437;28;20049;-41
2022/05/16 10:54:14;;;;;;;1.08;0.28;;;;;;;;;;4157348;28;20060;-40
2022/05/16 10:56:21;;;;;;;0.70;0.47;;;;;;;;;;4153763;28;20056;-41
2022/05/16 10:58:30;;;;;;;0.43;0.10;;;;;;;;;;4142298;28;22194;-38
2022/05/16 11:00:37;;;;;;;0.73;0.20;;;;;;;;;;4134048;28;20064;-40
2022/05/16 11:02:57;;;;;;;0.85;0.28;;;;;;;;;;4126008;28;20072;-41
2022/05/16 11:05:04;;;;;;;0.97;0.20;;;;;;;;;;4150525;28;20055;-40
2022/05/16 11:07:28;;;;;;;5.00;0.30;;;;;;;;;;4136913;28;20119;-42
2022/05/16 11:09:42;;;;;;;2.38;0.30;;;;;;;;;;4152678;28;20365;-39
2022/05/16 11:11:57;;;;;;;1.60;0.50;;;;;;;;;;4154334;28;20044;-41
2022/05/16 11:14:22;;;;;;;0.52;0.20;;;;;;;;;;4150410;28;20491;-42
2022/05/16 11:16:33;;;;;;;0.98;0.20;;;;;;;;;;4135225;28;20558;-43
2022/05/16 11:18:52;;;;;;;1.17;0.32;;;;;;;;;;4141094;28;20052;-43
2022/05/16 11:21:00;;;;;;;0.85;0.20;;;;;;;;;;4152893;28;20099;-42
2022/05/16 11:23:18;;;;;;;2.53;0.30;;;;;;;;;;4145342;28;20125;-42
2022/05/16 11:25:31;;;;;;;2.17;0.20;;;;;;;;;;4148161;28;20054;-42
2022/05/16 11:27:32;;;;;;;1.85;0.10;;;;;;;;;;4145092;28;20048;-43
2022/05/16 11:29:36;;;;;;;0.73;0.20;;;;;;;;;;4158888;28;20605;-42
2022/05/16 11:31:40;;;;;;;1.73;0.30;;;;;;;;;;4148686;28;20072;-42
2022/05/16 11:33:51;;;;;;;1.85;0.10;;;;;;;;;;4147399;28;20673;-43
2022/05/16 11:35:58;;;;;;;0.85;0.25;;;;;;;;;;4156259;28;21557;-42
2022/05/16 11:38:10;;;;;;;6.70;0.45;;;;;;;;;;4156465;28;20052;-40
2022/05/16 11:40:19;;;;;;;3.00;0.30;;;;;;;;;;4157860;28;20193;-43
2022/05/16 11:42:23;;;;;;;6.00;0.10;;;;;;;;;;4154981;28;20097;-42
2022/05/16 11:44:28;;;;;;;0.50;0.25;;;;;;;;;;4154148;28;20087;-41
2022/05/16 11:46:32;;;;;;;0.10;0.10;;;;;;;;;;4149823;28;20078;-42
2022/05/16 11:48:39;;;;;;;0.50;0.13;;;;;;;;;;4155844;28;20049;-42
2022/05/16 11:51:03;;;;;;;1.75;0.20;;;;;;;;;;4154114;28;20122;-42
2022/05/16 11:53:11;;;;;;;0.47;0.17;;;;;;;;;;4142016;28;20056;-40
2022/05/16 12:00:32;;;;;;;1.95;0.20;;;;;;;;;;4141408;28;20109;-42
2022/05/16 12:02:35;;;;;;;3.15;0.10;;;;;;;;;;4125701;28;20052;-42
2022/05/16 12:04:40;;;;;;;3.50;0.22;;;;;;;;;;4141665;28;20061;-41
2022/05/16 12:06:43;;;;;;;0.47;0.10;;;;;;;;;;4139759;28;20041;-41
2022/05/16 12:08:46;;;;;;;0.15;0.15;;;;;;;;;;4155577;28;20340;-42
2022/05/16 12:10:55;;;;;;;0.40;0.10;;;;;;;;;;4163728;28;20121;-42
2022/05/16 12:13:21;;;;;;;0.55;0.15;;;;;;;;;;4146325;28;20118;-42
2022/05/16 12:15:23;;;;;;;1.88;0.20;;;;;;;;;;4150622;28;20529;-42
2022/05/16 12:17:27;;;;;;;3.47;0.20;;;;;;;;;;4155222;28;20115;-40
2022/05/16 12:19:38;;;;;;;2.53;0.20;;;;;;;;;;4148826;28;20100;-42
2022/05/16 12:21:39;;;;;;;0.60;0.20;;;;;;;;;;4147488;28;20770;-41
2022/05/16 12:23:47;;;;;;;0.43;0.20;;;;;;;;;;4154602;28;20555;-42
2022/05/16 12:25:47;;;;;;;0.32;0.20;;;;;;;;;;4153433;28;20315;-42
2022/05/16 12:28:08;;;;;;;3.22;0.30;;;;;;;;;;4175733;28;20052;-42
2022/05/16 12:30:11;;;;;;;2.45;0.10;;;;;;;;;;4145498;28;20049;-41
2022/05/16 12:32:31;;;;;;;0.63;0.17;;;;;;;;;;4139149;28;20048;-42
2022/05/16 12:34:32;;;;;;;1.77;0.20;;;;;;;;;;4147052;28;20751;-40
2022/05/16 12:36:34;;;;;;;0.25;0.20;;;;;;;;;;4151077;28;20052;-39
2022/05/16 12:38:35;;;;;;;2.20;0.28;;;;;;;;;;4150175;28;20182;-40
2022/05/16 12:40:39;;;;;;;2.65;0.30;;;;;;;;;;4155873;28;20053;-41
2022/05/16 12:42:45;;;;;;;1.27;0.20;;;;;;;;;;4154910;28;20102;-42
2022/05/16 12:45:02;;;;;;;1.17;0.30;;;;;;;;;;4151379;28;20490;-42
2022/05/16 12:47:05;;;;;;;3.38;0.22;;;;;;;;;;4150741;28;20056;-41
2022/05/16 12:49:26;;;;;;;1.05;0.30;;;;;;;;;;4150936;28;20049;-41
2022/05/16 12:51:36;;;;;;;1.45;0.20;;;;;;;;;;4150534;28;20049;-40
2022/05/16 12:53:56;;;;;;;1.75;0.20;;;;;;;;;;4147994;28;20134;-41
2022/05/16 12:56:20;;;;;;;0.10;0.10;;;;;;;;;;4150753;28;20405;-41
2022/05/16 12:58:25;;;;;;;0.45;0.00;;;;;;;;;;4145580;28;20118;-40